ACA388 SKRG-MHTG
Flight info
| Callsign | ACA388 |
|---|---|
| Flight time | N/A |
| Altitude | 38000 |
| Route | TEDON1B TEDON DCT KUBEK UP790 TBG UA317 MGA UZ512 TALAG TALAG1A |
| Aircraft | B737/M-SDE2E3FGHIRWXY/LB1 |
Departure
| Time | 2026-05-09 16:36 |
|---|---|
| Airport | Jose Maria Córdova International Airport (SKRG) |
Arrival
| Time | N/A |
|---|---|
| Airport | Toncontín Airport (MHTG) |
| Time | Latitude | Longitude | Altitude | Speed | Heading |
|---|---|---|---|---|---|
| 2026-05-09 16:28 | 6.17148 | -75.42643 | 7015 ft | 3 kts | 269° |
| 2026-05-09 16:28 | 6.17149 | -75.42632 | 7015 ft | 2 kts | 228° |
| 2026-05-09 16:28 | 6.17159 | -75.42625 | 7015 ft | 0 kts | 182° |
| 2026-05-09 16:30 | 6.17157 | -75.42625 | 7015 ft | 3 kts | 181° |
| 2026-05-09 16:31 | 6.17117 | -75.42621 | 7015 ft | 9 kts | 171° |
| 2026-05-09 16:31 | 6.17045 | -75.42590 | 7015 ft | 13 kts | 151° |
| 2026-05-09 16:31 | 6.16968 | -75.42545 | 7019 ft | 13 kts | 148° |
| 2026-05-09 16:31 | 6.16877 | -75.42492 | 7015 ft | 18 kts | 160° |
| 2026-05-09 16:32 | 6.16726 | -75.42483 | 7015 ft | 25 kts | 182° |
| 2026-05-09 16:32 | 6.16528 | -75.42482 | 6999 ft | 31 kts | 179° |
| 2026-05-09 16:32 | 6.16294 | -75.42484 | 6991 ft | 34 kts | 180° |
| 2026-05-09 16:32 | 6.16052 | -75.42480 | 6986 ft | 36 kts | 180° |
| 2026-05-09 16:33 | 6.15793 | -75.42479 | 6982 ft | 38 kts | 180° |
| 2026-05-09 16:33 | 6.15523 | -75.42477 | 6979 ft | 40 kts | 179° |
| 2026-05-09 16:33 | 6.15265 | -75.42476 | 6975 ft | 37 kts | 180° |
| 2026-05-09 16:33 | 6.15014 | -75.42472 | 6976 ft | 25 kts | 179° |
| 2026-05-09 16:34 | 6.14904 | -75.42435 | 6976 ft | 18 kts | 105° |
| 2026-05-09 16:34 | 6.14945 | -75.42323 | 6974 ft | 17 kts | 34° |
| 2026-05-09 16:34 | 6.15037 | -75.42306 | 6977 ft | 14 kts | 359° |
| 2026-05-09 16:34 | 6.15171 | -75.42307 | 6978 ft | 37 kts | 359° |
| 2026-05-09 16:35 | 6.15618 | -75.42309 | 6981 ft | 91 kts | 359° |
| 2026-05-09 16:35 | 6.16327 | -75.42313 | 6987 ft | 131 kts | 359° |
| 2026-05-09 16:35 | 6.17139 | -75.42322 | 7021 ft | 158 kts | 359° |
| 2026-05-09 16:35 | 6.18259 | -75.42370 | 7317 ft | 164 kts | 356° |
| 2026-05-09 16:36 | 6.19442 | -75.42483 | 7584 ft | 177 kts | 349° |
| 2026-05-09 16:36 | 6.22066 | -75.41450 | 8737 ft | 178 kts | 71° |
| 2026-05-09 16:37 | 6.22132 | -75.40160 | 8934 ft | 202 kts | 106° |
| 2026-05-09 16:37 | 6.21944 | -75.38717 | 9090 ft | 220 kts | 75° |
| 2026-05-09 16:37 | 6.22685 | -75.37306 | 9286 ft | 240 kts | 58° |
| 2026-05-09 16:37 | 6.23589 | -75.35798 | 9455 ft | 263 kts | 61° |
| 2026-05-09 16:38 | 6.24501 | -75.34106 | 9609 ft | 287 kts | 63° |
| 2026-05-09 16:38 | 6.25428 | -75.32277 | 10162 ft | 299 kts | 64° |
| 2026-05-09 16:38 | 6.26388 | -75.30326 | 10436 ft | 324 kts | 65° |
| 2026-05-09 16:38 | 6.27416 | -75.28218 | 10632 ft | 348 kts | 65° |
| 2026-05-09 16:39 | 6.28782 | -75.26128 | 10952 ft | 367 kts | 46° |
| 2026-05-09 16:39 | 6.30920 | -75.24692 | 11530 ft | 377 kts | 21° |
| 2026-05-09 16:39 | 6.33501 | -75.24221 | 12287 ft | 381 kts | 2° |
| 2026-05-09 16:39 | 6.36163 | -75.24241 | 13035 ft | 385 kts | 359° |
| 2026-05-09 16:40 | 6.38859 | -75.24306 | 13775 ft | 388 kts | 359° |
| 2026-05-09 16:40 | 6.41565 | -75.24340 | 14521 ft | 390 kts | 360° |
| 2026-05-09 16:42 | 6.59191 | -75.31861 | 18833 ft | 412 kts | 329° |
| 2026-05-09 16:42 | 6.61706 | -75.33312 | 19329 ft | 416 kts | 330° |
| 2026-05-09 16:42 | 6.64231 | -75.34763 | 19815 ft | 419 kts | 330° |
| 2026-05-09 16:42 | 6.66775 | -75.36219 | 20261 ft | 424 kts | 329° |
| 2026-05-09 16:43 | 6.69352 | -75.37689 | 20725 ft | 427 kts | 329° |
| 2026-05-09 16:43 | 6.71926 | -75.39156 | 21148 ft | 429 kts | 329° |
| 2026-05-09 16:43 | 6.74547 | -75.40651 | 21526 ft | 433 kts | 329° |
| 2026-05-09 16:43 | 6.77185 | -75.42159 | 21850 ft | 437 kts | 329° |
| 2026-05-09 16:44 | 6.79839 | -75.43677 | 22280 ft | 438 kts | 329° |
| 2026-05-09 16:44 | 6.82500 | -75.45198 | 22665 ft | 441 kts | 329° |
| 2026-05-09 16:44 | 6.85149 | -75.46708 | 23051 ft | 443 kts | 329° |
| 2026-05-09 16:44 | 6.87849 | -75.48247 | 23342 ft | 447 kts | 329° |
| 2026-05-09 16:45 | 6.90569 | -75.49803 | 23680 ft | 450 kts | 329° |
| 2026-05-09 16:45 | 6.93290 | -75.51361 | 24027 ft | 451 kts | 329° |
| 2026-05-09 16:45 | 6.96037 | -75.52934 | 24311 ft | 455 kts | 329° |
| 2026-05-09 16:45 | 6.98805 | -75.54518 | 24678 ft | 458 kts | 329° |
| 2026-05-09 16:46 | 7.01462 | -75.56207 | 25028 ft | 458 kts | 319° |
| 2026-05-09 16:46 | 7.03610 | -75.58603 | 25320 ft | 457 kts | 302° |
| 2026-05-09 16:46 | 7.05281 | -75.61284 | 25625 ft | 458 kts | 300° |
| 2026-05-09 16:46 | 7.06926 | -75.64038 | 25845 ft | 462 kts | 300° |
| 2026-05-09 16:47 | 7.08576 | -75.66829 | 26065 ft | 465 kts | 300° |
| 2026-05-09 16:47 | 7.10236 | -75.69626 | 26315 ft | 467 kts | 300° |
| 2026-05-09 16:47 | 7.11938 | -75.72469 | 26580 ft | 469 kts | 301° |
| 2026-05-09 16:47 | 7.13633 | -75.75277 | 26840 ft | 471 kts | 301° |
| 2026-05-09 16:48 | 7.15323 | -75.78061 | 27076 ft | 473 kts | 301° |
| 2026-05-09 16:48 | 7.17047 | -75.80890 | 27302 ft | 475 kts | 301° |
| 2026-05-09 16:48 | 7.18779 | -75.83727 | 27493 ft | 477 kts | 301° |
| 2026-05-09 16:48 | 7.20524 | -75.86586 | 27699 ft | 480 kts | 301° |
| 2026-05-09 16:49 | 7.22273 | -75.89453 | 27941 ft | 481 kts | 301° |
| 2026-05-09 16:49 | 7.24031 | -75.92335 | 28146 ft | 483 kts | 301° |
| 2026-05-09 16:49 | 7.25790 | -75.95221 | 28342 ft | 485 kts | 302° |
| 2026-05-09 16:50 | 7.29335 | -76.01039 | 28716 ft | 489 kts | 301° |
| 2026-05-09 16:50 | 7.31122 | -76.03972 | 28866 ft | 491 kts | 302° |
| 2026-05-09 16:50 | 7.32912 | -76.06912 | 29026 ft | 493 kts | 302° |
| 2026-05-09 16:50 | 7.34702 | -76.09849 | 29215 ft | 494 kts | 302° |
| 2026-05-09 16:51 | 7.36506 | -76.12813 | 29437 ft | 495 kts | 302° |
| 2026-05-09 16:51 | 7.38303 | -76.15767 | 29715 ft | 494 kts | 302° |
| 2026-05-09 16:51 | 7.40097 | -76.18716 | 29998 ft | 494 kts | 302° |
| 2026-05-09 16:51 | 7.41897 | -76.21675 | 30238 ft | 495 kts | 302° |
| 2026-05-09 16:52 | 7.43691 | -76.24623 | 30514 ft | 493 kts | 302° |
| 2026-05-09 16:52 | 7.45484 | -76.27572 | 30840 ft | 492 kts | 302° |
| 2026-05-09 16:52 | 7.47268 | -76.30505 | 31244 ft | 490 kts | 302° |
| 2026-05-09 16:52 | 7.49045 | -76.33427 | 31631 ft | 487 kts | 302° |
| 2026-05-09 16:53 | 7.50789 | -76.36298 | 31999 ft | 486 kts | 302° |
| 2026-05-09 16:53 | 7.52548 | -76.39193 | 32372 ft | 484 kts | 302° |
| 2026-05-09 16:53 | 7.54303 | -76.42084 | 32752 ft | 482 kts | 302° |
| 2026-05-09 16:53 | 7.56048 | -76.44955 | 33176 ft | 480 kts | 302° |
| 2026-05-09 16:54 | 7.57783 | -76.47815 | 33539 ft | 476 kts | 301° |
| 2026-05-09 16:54 | 7.59513 | -76.50671 | 33805 ft | 477 kts | 301° |
| 2026-05-09 16:54 | 7.61251 | -76.53533 | 34100 ft | 478 kts | 302° |
| 2026-05-09 16:54 | 7.62980 | -76.56375 | 34474 ft | 475 kts | 302° |
| 2026-05-09 16:55 | 7.64707 | -76.59220 | 34814 ft | 473 kts | 302° |
| 2026-05-09 16:55 | 7.66423 | -76.62046 | 35187 ft | 471 kts | 302° |
| 2026-05-09 16:55 | 7.68129 | -76.64857 | 35532 ft | 469 kts | 302° |
| 2026-05-09 16:55 | 7.69813 | -76.67634 | 35814 ft | 469 kts | 302° |
| 2026-05-09 16:56 | 7.71514 | -76.70438 | 36094 ft | 468 kts | 302° |
| 2026-05-09 16:56 | 7.73206 | -76.73230 | 36381 ft | 467 kts | 302° |
| 2026-05-09 16:56 | 7.74901 | -76.76026 | 36638 ft | 467 kts | 302° |
| 2026-05-09 16:56 | 7.76595 | -76.78820 | 36942 ft | 464 kts | 302° |
| 2026-05-09 16:57 | 7.78268 | -76.81582 | 37370 ft | 458 kts | 302° |
| 2026-05-09 16:57 | 7.79926 | -76.84318 | 37531 ft | 458 kts | 302° |
| 2026-05-09 16:57 | 7.81585 | -76.87057 | 37527 ft | 457 kts | 302° |
| 2026-05-09 16:58 | 7.84883 | -76.92507 | 37533 ft | 453 kts | 302° |
| 2026-05-09 16:58 | 7.88164 | -76.97927 | 37536 ft | 452 kts | 302° |
| 2026-05-09 16:59 | 7.91420 | -77.03309 | 37545 ft | 451 kts | 302° |
| 2026-05-09 16:59 | 7.94685 | -77.08706 | 37532 ft | 450 kts | 302° |
| 2026-05-09 17:00 | 7.97950 | -77.14104 | 37550 ft | 451 kts | 302° |
| 2026-05-09 17:00 | 8.01219 | -77.19512 | 37539 ft | 452 kts | 302° |
| 2026-05-09 17:01 | 8.03876 | -77.25254 | 37555 ft | 453 kts | 289° |
| 2026-05-09 17:01 | 8.05826 | -77.31315 | 37545 ft | 454 kts | 288° |
| 2026-05-09 17:02 | 8.07761 | -77.37409 | 37531 ft | 450 kts | 289° |
| 2026-05-09 17:02 | 8.08700 | -77.40328 | 37510 ft | 436 kts | 289° |
| 2026-05-09 17:02 | 8.09630 | -77.43196 | 37515 ft | 421 kts | 289° |
| 2026-05-09 17:02 | 8.10531 | -77.45961 | 37517 ft | 407 kts | 289° |
| 2026-05-09 17:03 | 8.11404 | -77.48628 | 37513 ft | 394 kts | 289° |
| 2026-05-09 17:04 | 8.16873 | -77.65315 | 35960 ft | 351 kts | 289° |
| 2026-05-09 17:05 | 8.17645 | -77.67674 | 35415 ft | 356 kts | 289° |
| 2026-05-09 17:05 | 8.18424 | -77.70053 | 34966 ft | 357 kts | 289° |
| 2026-05-09 17:05 | 8.19193 | -77.72400 | 34620 ft | 356 kts | 289° |
| 2026-05-09 17:05 | 8.19974 | -77.74787 | 34337 ft | 351 kts | 289° |
| 2026-05-09 17:06 | 8.20724 | -77.77082 | 34082 ft | 347 kts | 289° |
| 2026-05-09 17:06 | 8.21475 | -77.79386 | 33800 ft | 344 kts | 289° |
| 2026-05-09 17:06 | 8.22219 | -77.81670 | 33470 ft | 341 kts | 289° |
| 2026-05-09 17:06 | 8.22961 | -77.83941 | 33107 ft | 340 kts | 289° |
| 2026-05-09 17:07 | 8.23702 | -77.86206 | 32712 ft | 340 kts | 289° |
| 2026-05-09 17:07 | 8.23945 | -77.86944 | 32605 ft | 339 kts | 289° |
| 2026-05-09 17:07 | 8.25179 | -77.90714 | 32043 ft | 336 kts | 289° |
| 2026-05-09 17:07 | 8.25908 | -77.92945 | 31754 ft | 333 kts | 289° |
| 2026-05-09 17:08 | 8.26633 | -77.95163 | 31489 ft | 330 kts | 289° |
| 2026-05-09 17:08 | 8.28044 | -77.99488 | 30940 ft | 323 kts | 288° |
| 2026-05-09 17:08 | 8.28745 | -78.01635 | 30609 ft | 322 kts | 288° |
| 2026-05-09 17:09 | 8.29449 | -78.03784 | 30272 ft | 322 kts | 288° |
| 2026-05-09 17:09 | 8.30150 | -78.05933 | 29957 ft | 320 kts | 288° |
| 2026-05-09 17:09 | 8.30844 | -78.08064 | 29674 ft | 318 kts | 288° |
| 2026-05-09 17:09 | 8.31531 | -78.10174 | 29404 ft | 314 kts | 288° |
| 2026-05-09 17:10 | 8.32208 | -78.12252 | 29131 ft | 311 kts | 288° |
| 2026-05-09 17:10 | 8.32885 | -78.14322 | 28857 ft | 308 kts | 288° |
| 2026-05-09 17:10 | 8.33549 | -78.16365 | 28549 ft | 306 kts | 288° |
| 2026-05-09 17:10 | 8.34213 | -78.18408 | 28226 ft | 305 kts | 287° |
| 2026-05-09 17:11 | 8.34874 | -78.20437 | 27923 ft | 303 kts | 288° |
| 2026-05-09 17:11 | 8.35532 | -78.22447 | 27616 ft | 301 kts | 287° |
| 2026-05-09 17:11 | 8.36176 | -78.24426 | 27337 ft | 299 kts | 287° |
| 2026-05-09 17:11 | 8.36820 | -78.26409 | 27064 ft | 296 kts | 287° |
| 2026-05-09 17:12 | 8.37461 | -78.28380 | 26794 ft | 294 kts | 287° |
| 2026-05-09 17:12 | 8.38094 | -78.30334 | 26512 ft | 292 kts | 287° |
| 2026-05-09 17:12 | 8.38726 | -78.32274 | 26222 ft | 290 kts | 287° |
| 2026-05-09 17:12 | 8.39355 | -78.34208 | 25931 ft | 288 kts | 287° |
| 2026-05-09 17:13 | 8.39977 | -78.36120 | 25649 ft | 286 kts | 287° |
| 2026-05-09 17:13 | 8.40597 | -78.38024 | 25364 ft | 284 kts | 287° |
| 2026-05-09 17:13 | 8.41212 | -78.39916 | 25088 ft | 282 kts | 287° |
| 2026-05-09 17:13 | 8.41822 | -78.41795 | 24806 ft | 280 kts | 287° |
| 2026-05-09 17:14 | 8.42415 | -78.43615 | 24730 ft | 262 kts | 286° |
| 2026-05-09 17:14 | 8.42957 | -78.45276 | 24770 ft | 238 kts | 286° |
| 2026-05-09 17:14 | 8.43465 | -78.46834 | 24365 ft | 233 kts | 286° |
| 2026-05-09 17:14 | 8.43980 | -78.48425 | 23590 ft | 246 kts | 286° |
| 2026-05-09 17:15 | 8.44518 | -78.50090 | 22899 ft | 256 kts | 286° |
| 2026-05-09 17:15 | 8.45066 | -78.51781 | 22550 ft | 249 kts | 287° |
| 2026-05-09 17:15 | 8.45591 | -78.53393 | 22376 ft | 234 kts | 287° |
| 2026-05-09 17:15 | 8.46091 | -78.54931 | 22052 ft | 226 kts | 286° |
| 2026-05-09 17:16 | 8.46581 | -78.56447 | 21493 ft | 230 kts | 287° |
| 2026-05-09 17:17 | 8.49841 | -78.66493 | 18589 ft | 220 kts | 288° |
| 2026-05-09 17:18 | 8.50316 | -78.67958 | 18208 ft | 218 kts | 288° |
| 2026-05-09 17:18 | 8.50781 | -78.69393 | 17864 ft | 212 kts | 288° |
| 2026-05-09 17:18 | 8.51237 | -78.70801 | 17466 ft | 210 kts | 288° |
| 2026-05-09 17:18 | 8.51692 | -78.72205 | 17010 ft | 211 kts | 288° |
| 2026-05-09 17:19 | 8.52152 | -78.73623 | 16543 ft | 213 kts | 288° |
| 2026-05-09 17:19 | 8.52608 | -78.75030 | 16119 ft | 213 kts | 288° |
| 2026-05-09 17:19 | 8.53067 | -78.76449 | 15728 ft | 211 kts | 288° |
| 2026-05-09 17:19 | 8.53522 | -78.77854 | 15333 ft | 209 kts | 288° |
| 2026-05-09 17:20 | 8.53975 | -78.79252 | 14915 ft | 209 kts | 288° |
| 2026-05-09 17:20 | 8.54429 | -78.80652 | 14480 ft | 210 kts | 288° |
| 2026-05-09 17:20 | 8.54883 | -78.82055 | 14078 ft | 210 kts | 289° |
| 2026-05-09 17:20 | 8.55336 | -78.83456 | 13673 ft | 209 kts | 289° |
| 2026-05-09 17:21 | 8.55788 | -78.84847 | 13286 ft | 208 kts | 289° |
| 2026-05-09 17:21 | 8.56237 | -78.86235 | 12902 ft | 207 kts | 289° |
| 2026-05-09 17:21 | 8.56681 | -78.87607 | 12512 ft | 207 kts | 289° |
| 2026-05-09 17:21 | 8.57127 | -78.88989 | 12128 ft | 207 kts | 289° |
| 2026-05-09 17:22 | 8.57574 | -78.90373 | 11754 ft | 206 kts | 290° |
| 2026-05-09 17:22 | 8.58017 | -78.91743 | 11384 ft | 205 kts | 290° |
| 2026-05-09 17:22 | 8.58459 | -78.93111 | 11000 ft | 204 kts | 290° |
| 2026-05-09 17:22 | 8.58902 | -78.94477 | 10625 ft | 204 kts | 290° |
| 2026-05-09 17:23 | 8.59341 | -78.95835 | 10276 ft | 202 kts | 290° |
| 2026-05-09 17:23 | 8.59775 | -78.97173 | 9939 ft | 199 kts | 290° |
| 2026-05-09 17:23 | 8.60205 | -78.98504 | 9583 ft | 198 kts | 291° |
| 2026-05-09 17:23 | 8.60622 | -78.99802 | 9228 ft | 196 kts | 291° |
| 2026-05-09 17:25 | 8.62708 | -79.06259 | 7565 ft | 189 kts | 291° |
| 2026-05-09 17:25 | 8.63113 | -79.07519 | 7185 ft | 187 kts | 291° |
| 2026-05-09 17:25 | 8.63511 | -79.08767 | 6885 ft | 185 kts | 292° |
| 2026-05-09 17:25 | 8.63905 | -79.09988 | 6624 ft | 180 kts | 291° |
| 2026-05-09 17:26 | 8.64292 | -79.11188 | 6285 ft | 180 kts | 291° |
| 2026-05-09 17:26 | 8.64685 | -79.12410 | 5864 ft | 185 kts | 291° |
| 2026-05-09 17:26 | 8.65084 | -79.13644 | 5559 ft | 183 kts | 292° |
| 2026-05-09 17:26 | 8.65473 | -79.14842 | 5315 ft | 177 kts | 292° |
| 2026-05-09 17:27 | 8.65845 | -79.16004 | 5018 ft | 172 kts | 292° |
| 2026-05-09 17:27 | 8.66227 | -79.17171 | 4576 ft | 179 kts | 291° |
| 2026-05-09 17:27 | 8.66611 | -79.18360 | 4251 ft | 177 kts | 291° |
| 2026-05-09 17:27 | 8.67012 | -79.19511 | 4086 ft | 169 kts | 291° |
| 2026-05-09 17:28 | 8.67320 | -79.20613 | 3866 ft | 163 kts | 288° |
| 2026-05-09 17:28 | 8.67657 | -79.21736 | 3387 ft | 173 kts | 290° |
| 2026-05-09 17:28 | 8.68042 | -79.22926 | 2989 ft | 181 kts | 288° |
| 2026-05-09 17:28 | 8.68421 | -79.24084 | 2832 ft | 168 kts | 294° |
| 2026-05-09 17:29 | 8.68808 | -79.25169 | 2610 ft | 162 kts | 291° |
| 2026-05-09 17:29 | 8.69171 | -79.26265 | 2199 ft | 168 kts | 291° |
| 2026-05-09 17:29 | 8.69540 | -79.27405 | 1824 ft | 172 kts | 291° |
| 2026-05-09 17:29 | 8.69908 | -79.28546 | 1576 ft | 170 kts | 291° |
| 2026-05-09 17:30 | 8.70283 | -79.29708 | 1466 ft | 190 kts | 291° |
| 2026-05-09 17:30 | 8.70731 | -79.31088 | 1727 ft | 220 kts | 290° |
| 2026-05-09 17:30 | 8.71228 | -79.32631 | 2017 ft | 241 kts | 290° |
| 2026-05-09 17:30 | 8.71769 | -79.34318 | 2272 ft | 267 kts | 289° |
| 2026-05-09 17:31 | 8.72353 | -79.36157 | 2523 ft | 276 kts | 290° |
| 2026-05-09 17:31 | 8.72952 | -79.38016 | 2794 ft | 280 kts | 290° |
| 2026-05-09 17:32 | 8.75385 | -79.45570 | 3797 ft | 285 kts | 290° |
| 2026-05-09 17:32 | 8.75987 | -79.47468 | 4054 ft | 284 kts | 290° |
| 2026-05-09 17:32 | 8.76607 | -79.49371 | 4292 ft | 287 kts | 290° |
| 2026-05-09 17:33 | 8.77229 | -79.51307 | 4551 ft | 291 kts | 290° |
| 2026-05-09 17:33 | 8.77859 | -79.53264 | 4802 ft | 294 kts | 290° |
| 2026-05-09 17:33 | 8.78490 | -79.55232 | 5055 ft | 296 kts | 290° |
| 2026-05-09 17:33 | 8.79143 | -79.57229 | 5300 ft | 300 kts | 291° |
| 2026-05-09 17:34 | 8.79801 | -79.59184 | 5544 ft | 295 kts | 291° |
| 2026-05-09 17:35 | 8.83693 | -79.70784 | 7027 ft | 270 kts | 291° |
| 2026-05-09 17:35 | 8.84288 | -79.72594 | 7260 ft | 272 kts | 291° |
| 2026-05-09 17:36 | 8.84894 | -79.74401 | 7495 ft | 271 kts | 291° |
| 2026-05-09 17:36 | 8.85507 | -79.76213 | 7757 ft | 272 kts | 291° |
| 2026-05-09 17:36 | 8.86119 | -79.78026 | 8024 ft | 273 kts | 291° |
| 2026-05-09 17:36 | 8.86729 | -79.79829 | 8282 ft | 276 kts | 291° |
| 2026-05-09 17:37 | 8.87350 | -79.81675 | 8525 ft | 278 kts | 291° |
| 2026-05-09 17:37 | 8.87976 | -79.83533 | 8776 ft | 279 kts | 291° |
| 2026-05-09 17:37 | 8.88602 | -79.85388 | 9035 ft | 278 kts | 291° |
| 2026-05-09 17:37 | 8.89226 | -79.87245 | 9273 ft | 280 kts | 291° |
| 2026-05-09 17:38 | 8.89855 | -79.89116 | 9511 ft | 281 kts | 291° |
| 2026-05-09 17:38 | 8.90486 | -79.91002 | 9776 ft | 284 kts | 291° |
| 2026-05-09 17:38 | 8.91127 | -79.92920 | 10049 ft | 293 kts | 291° |
| 2026-05-09 17:39 | 8.92526 | -79.97102 | 10564 ft | 328 kts | 290° |
| 2026-05-09 17:39 | 8.93255 | -79.99276 | 10823 ft | 331 kts | 290° |
| 2026-05-09 17:39 | 8.93992 | -80.01479 | 11075 ft | 331 kts | 291° |
| 2026-05-09 17:39 | 8.94734 | -80.03689 | 11323 ft | 333 kts | 291° |
| 2026-05-09 17:40 | 8.95476 | -80.05912 | 11577 ft | 335 kts | 291° |
| 2026-05-09 17:40 | 8.96223 | -80.08147 | 11831 ft | 336 kts | 291° |
| 2026-05-09 17:40 | 8.96970 | -80.10387 | 12083 ft | 336 kts | 291° |
| 2026-05-09 17:40 | 8.97721 | -80.12635 | 12320 ft | 338 kts | 290° |
| 2026-05-09 17:41 | 8.98477 | -80.14895 | 12576 ft | 340 kts | 290° |
| 2026-05-09 17:41 | 8.99238 | -80.17168 | 12823 ft | 341 kts | 290° |
| 2026-05-09 17:41 | 8.99998 | -80.19437 | 13085 ft | 341 kts | 290° |
| 2026-05-09 17:41 | 9.00761 | -80.21715 | 13332 ft | 342 kts | 290° |
| 2026-05-09 17:42 | 9.01524 | -80.23999 | 13593 ft | 343 kts | 290° |
| 2026-05-09 17:42 | 9.02290 | -80.26286 | 13813 ft | 343 kts | 290° |
| 2026-05-09 17:42 | 9.03055 | -80.28573 | 14078 ft | 343 kts | 290° |
| 2026-05-09 17:42 | 9.03816 | -80.30861 | 14330 ft | 343 kts | 290° |
| 2026-05-09 17:43 | 9.04576 | -80.33143 | 14586 ft | 343 kts | 289° |
| 2026-05-09 17:43 | 9.05339 | -80.35435 | 14830 ft | 343 kts | 289° |
| 2026-05-09 17:43 | 9.06092 | -80.37699 | 15083 ft | 344 kts | 289° |
| 2026-05-09 17:43 | 9.06858 | -80.40000 | 15338 ft | 345 kts | 289° |
| 2026-05-09 17:44 | 9.07625 | -80.42302 | 15584 ft | 345 kts | 289° |
| 2026-05-09 17:44 | 9.08395 | -80.44609 | 15839 ft | 346 kts | 289° |
| 2026-05-09 17:44 | 9.09165 | -80.46919 | 16084 ft | 348 kts | 289° |
| 2026-05-09 17:44 | 9.09940 | -80.49244 | 16339 ft | 348 kts | 289° |
| 2026-05-09 17:45 | 9.10713 | -80.51569 | 16589 ft | 349 kts | 289° |
| 2026-05-09 17:45 | 9.11492 | -80.53910 | 16841 ft | 351 kts | 289° |
| 2026-05-09 17:45 | 9.12273 | -80.56256 | 17094 ft | 352 kts | 289° |
| 2026-05-09 17:45 | 9.13056 | -80.58608 | 17345 ft | 353 kts | 288° |
| 2026-05-09 17:46 | 9.13840 | -80.60964 | 17596 ft | 354 kts | 288° |
| 2026-05-09 17:46 | 9.14617 | -80.63299 | 17843 ft | 356 kts | 288° |
| 2026-05-09 17:46 | 9.15406 | -80.65673 | 18095 ft | 355 kts | 288° |
| 2026-05-09 17:46 | 9.16191 | -80.68038 | 18341 ft | 355 kts | 288° |
| 2026-05-09 17:47 | 9.16981 | -80.70414 | 18590 ft | 357 kts | 288° |
| 2026-05-09 17:47 | 9.17775 | -80.72801 | 18842 ft | 359 kts | 288° |
| 2026-05-09 17:47 | 9.18572 | -80.75197 | 19093 ft | 360 kts | 288° |
| 2026-05-09 17:47 | 9.19376 | -80.77615 | 19346 ft | 363 kts | 288° |
| 2026-05-09 17:48 | 9.20182 | -80.80037 | 19596 ft | 366 kts | 288° |
| 2026-05-09 17:48 | 9.20995 | -80.82489 | 19850 ft | 367 kts | 288° |
| 2026-05-09 17:48 | 9.21810 | -80.84946 | 20104 ft | 370 kts | 288° |
| 2026-05-09 17:48 | 9.22633 | -80.87425 | 20356 ft | 372 kts | 288° |
| 2026-05-09 17:49 | 9.23462 | -80.89926 | 20608 ft | 374 kts | 288° |
| 2026-05-09 17:49 | 9.24290 | -80.92425 | 20860 ft | 375 kts | 288° |
| 2026-05-09 17:49 | 9.25121 | -80.94930 | 21107 ft | 376 kts | 288° |
| 2026-05-09 17:49 | 9.25955 | -80.97445 | 21362 ft | 378 kts | 288° |
| 2026-05-09 17:50 | 9.26794 | -80.99977 | 21618 ft | 380 kts | 288° |
| 2026-05-09 17:50 | 9.28536 | -81.05014 | 22104 ft | 383 kts | 289° |
| 2026-05-09 17:50 | 9.29144 | -81.06731 | 22275 ft | 384 kts | 289° |
| 2026-05-09 17:51 | 9.30344 | -81.10116 | 22610 ft | 387 kts | 289° |
| 2026-05-09 17:51 | 9.31255 | -81.12690 | 22861 ft | 388 kts | 289° |
| 2026-05-09 17:51 | 9.32165 | -81.15271 | 23109 ft | 391 kts | 289° |
| 2026-05-09 17:51 | 9.33082 | -81.17876 | 23362 ft | 392 kts | 289° |
| 2026-05-09 17:52 | 9.34000 | -81.20483 | 23609 ft | 393 kts | 289° |
| 2026-05-09 17:52 | 9.34915 | -81.23091 | 23857 ft | 395 kts | 289° |
| 2026-05-09 17:52 | 9.35837 | -81.25721 | 24113 ft | 397 kts | 289° |
| 2026-05-09 17:52 | 9.36763 | -81.28363 | 24364 ft | 399 kts | 289° |
| 2026-05-09 17:53 | 9.37696 | -81.31024 | 24617 ft | 401 kts | 289° |
| 2026-05-09 17:53 | 9.38629 | -81.33685 | 24871 ft | 402 kts | 289° |
| 2026-05-09 17:53 | 9.39569 | -81.36369 | 25116 ft | 403 kts | 289° |
| 2026-05-09 17:53 | 9.40509 | -81.39054 | 25367 ft | 405 kts | 289° |
| 2026-05-09 17:54 | 9.41448 | -81.41740 | 25612 ft | 406 kts | 289° |
| 2026-05-09 17:54 | 9.42394 | -81.44442 | 25870 ft | 407 kts | 289° |
| 2026-05-09 17:54 | 9.43330 | -81.47117 | 26117 ft | 408 kts | 290° |
| 2026-05-09 17:54 | 9.44291 | -81.49863 | 26367 ft | 409 kts | 290° |
| 2026-05-09 17:55 | 9.45240 | -81.52577 | 26618 ft | 410 kts | 290° |
| 2026-05-09 17:55 | 9.46196 | -81.55309 | 26873 ft | 412 kts | 290° |
| 2026-05-09 17:55 | 9.47141 | -81.58012 | 27116 ft | 413 kts | 290° |
| 2026-05-09 17:55 | 9.48102 | -81.60765 | 27368 ft | 415 kts | 290° |
| 2026-05-09 17:56 | 9.49065 | -81.63519 | 27617 ft | 416 kts | 290° |
| 2026-05-09 17:56 | 9.50032 | -81.66287 | 27870 ft | 417 kts | 290° |
| 2026-05-09 17:56 | 9.51001 | -81.69058 | 28124 ft | 419 kts | 290° |
| 2026-05-09 17:57 | 9.52948 | -81.74640 | 28615 ft | 421 kts | 290° |
| 2026-05-09 17:57 | 9.53921 | -81.77429 | 28865 ft | 421 kts | 290° |
| 2026-05-09 17:57 | 9.54902 | -81.80239 | 29113 ft | 422 kts | 290° |
| 2026-05-09 17:57 | 9.55883 | -81.83052 | 29365 ft | 423 kts | 290° |
| 2026-05-09 17:58 | 9.56862 | -81.85861 | 29610 ft | 424 kts | 290° |
| 2026-05-09 17:58 | 9.57853 | -81.88699 | 29871 ft | 429 kts | 290° |
| 2026-05-09 17:58 | 9.58852 | -81.91562 | 30126 ft | 433 kts | 290° |
| 2026-05-09 17:58 | 9.59861 | -81.94459 | 30389 ft | 436 kts | 290° |
| 2026-05-09 17:59 | 9.60861 | -81.97331 | 30630 ft | 438 kts | 290° |
| 2026-05-09 17:59 | 9.61873 | -82.00241 | 30878 ft | 439 kts | 290° |
| 2026-05-09 17:59 | 9.62889 | -82.03164 | 31134 ft | 439 kts | 290° |
| 2026-05-09 17:59 | 9.63905 | -82.06087 | 31383 ft | 440 kts | 290° |
| 2026-05-09 18:00 | 9.64925 | -82.09021 | 31634 ft | 440 kts | 290° |
| 2026-05-09 18:00 | 9.65945 | -82.11955 | 31883 ft | 440 kts | 290° |
| 2026-05-09 18:00 | 9.66619 | -82.13894 | 32047 ft | 440 kts | 290° |
| 2026-05-09 18:00 | 9.67636 | -82.16821 | 32299 ft | 440 kts | 290° |
| 2026-05-09 18:01 | 9.68654 | -82.19752 | 32546 ft | 440 kts | 290° |
| 2026-05-09 18:01 | 9.69669 | -82.22674 | 32794 ft | 439 kts | 290° |
| 2026-05-09 18:01 | 9.70687 | -82.25605 | 33040 ft | 439 kts | 290° |
| 2026-05-09 18:01 | 9.71702 | -82.28526 | 33293 ft | 439 kts | 290° |
| 2026-05-09 18:02 | 9.72714 | -82.31444 | 33544 ft | 439 kts | 290° |
| 2026-05-09 18:02 | 9.73728 | -82.34366 | 33787 ft | 439 kts | 290° |
| 2026-05-09 18:02 | 9.74741 | -82.37287 | 34037 ft | 440 kts | 290° |
| 2026-05-09 18:02 | 9.75756 | -82.40216 | 34286 ft | 441 kts | 290° |
| 2026-05-09 18:03 | 9.76775 | -82.43157 | 34535 ft | 442 kts | 290° |
| 2026-05-09 18:03 | 9.77792 | -82.46095 | 34782 ft | 443 kts | 290° |
| 2026-05-09 18:03 | 9.78802 | -82.49010 | 35032 ft | 444 kts | 290° |
| 2026-05-09 18:03 | 9.79837 | -82.52002 | 35286 ft | 444 kts | 290° |
| 2026-05-09 18:04 | 9.80848 | -82.54923 | 35528 ft | 445 kts | 290° |
| 2026-05-09 18:04 | 9.81880 | -82.57921 | 35784 ft | 445 kts | 290° |
| 2026-05-09 18:04 | 9.82849 | -82.60846 | 36020 ft | 444 kts | 289° |
| 2026-05-09 18:04 | 9.83811 | -82.63835 | 36266 ft | 445 kts | 289° |
| 2026-05-09 18:05 | 9.84762 | -82.66816 | 36511 ft | 445 kts | 289° |
| 2026-05-09 18:05 | 9.85715 | -82.69804 | 36760 ft | 445 kts | 289° |
| 2026-05-09 18:05 | 9.86669 | -82.72782 | 37012 ft | 445 kts | 289° |
| 2026-05-09 18:05 | 9.87634 | -82.75780 | 37263 ft | 445 kts | 289° |
| 2026-05-09 18:06 | 9.88595 | -82.78762 | 37414 ft | 447 kts | 289° |
| 2026-05-09 18:06 | 9.90546 | -82.84811 | 37548 ft | 454 kts | 289° |
| 2026-05-09 18:07 | 9.92521 | -82.90943 | 37576 ft | 460 kts | 289° |
| 2026-05-09 18:07 | 9.94508 | -82.97124 | 37588 ft | 462 kts | 289° |
| 2026-05-09 18:08 | 9.96718 | -83.03239 | 37571 ft | 462 kts | 297° |
| 2026-05-09 18:08 | 10.00173 | -83.08703 | 37583 ft | 460 kts | 305° |
| 2026-05-09 18:09 | 10.03833 | -83.14024 | 37577 ft | 459 kts | 306° |
| 2026-05-09 18:09 | 10.07461 | -83.19358 | 37575 ft | 457 kts | 305° |
| 2026-05-09 18:10 | 10.11014 | -83.24645 | 37576 ft | 456 kts | 305° |
| 2026-05-09 18:10 | 10.14572 | -83.29965 | 37583 ft | 455 kts | 305° |
| 2026-05-09 18:11 | 10.18116 | -83.35268 | 37594 ft | 453 kts | 305° |
| 2026-05-09 18:11 | 10.21660 | -83.40573 | 37596 ft | 453 kts | 305° |
| 2026-05-09 18:12 | 10.25199 | -83.45869 | 37606 ft | 453 kts | 305° |
| 2026-05-09 18:12 | 10.28743 | -83.51173 | 37619 ft | 453 kts | 305° |
| 2026-05-09 18:13 | 10.32281 | -83.56469 | 37628 ft | 453 kts | 305° |
| 2026-05-09 18:13 | 10.35799 | -83.61742 | 37634 ft | 454 kts | 305° |
| 2026-05-09 18:14 | 10.39341 | -83.67054 | 37643 ft | 455 kts | 305° |
| 2026-05-09 18:14 | 10.42894 | -83.72379 | 37644 ft | 454 kts | 305° |
| 2026-05-09 18:15 | 10.46432 | -83.77691 | 37652 ft | 454 kts | 305° |
| 2026-05-09 18:15 | 10.50088 | -83.82924 | 37641 ft | 455 kts | 310° |
| 2026-05-09 18:16 | 10.54210 | -83.87810 | 37633 ft | 455 kts | 312° |
| 2026-05-09 18:16 | 10.58388 | -83.92680 | 37630 ft | 457 kts | 312° |
| 2026-05-09 18:17 | 10.62523 | -83.97592 | 37630 ft | 457 kts | 311° |
| 2026-05-09 18:17 | 10.66636 | -84.02516 | 37636 ft | 457 kts | 311° |
| 2026-05-09 18:18 | 10.70720 | -84.07423 | 37638 ft | 457 kts | 310° |
| 2026-05-09 18:18 | 10.74578 | -84.12563 | 37637 ft | 457 kts | 307° |
| 2026-05-09 18:19 | 10.78338 | -84.17787 | 37627 ft | 456 kts | 308° |
| 2026-05-09 18:19 | 10.83978 | -84.25537 | 37648 ft | 455 kts | 308° |
| 2026-05-09 18:20 | 10.87778 | -84.30713 | 37619 ft | 456 kts | 308° |
| 2026-05-09 18:20 | 10.91553 | -84.35858 | 37610 ft | 457 kts | 308° |
| 2026-05-09 18:21 | 10.95350 | -84.41043 | 37601 ft | 457 kts | 308° |
| 2026-05-09 18:21 | 10.99154 | -84.46238 | 37590 ft | 458 kts | 308° |